sensor_id;sensor_type;location;lat;lon;timestamp;P1;durP1;ratioP1;P2;durP2;ratioP2
6133;SDS011;3098;42.678;23.364;2023-10-19T00:02:13;21.90;;;10.57;;
6133;SDS011;3098;42.678;23.364;2023-10-19T00:04:42;24.23;;;11.37;;
6133;SDS011;3098;42.678;23.364;2023-10-19T00:07:08;18.33;;;9.53;;
6133;SDS011;3098;42.678;23.364;2023-10-19T00:09:41;22.43;;;10.53;;
6133;SDS011;3098;42.678;23.364;2023-10-19T00:12:11;24.27;;;11.23;;
6133;SDS011;3098;42.678;23.364;2023-10-19T00:14:41;24.53;;;10.50;;
6133;SDS011;3098;42.678;23.364;2023-10-19T00:17:07;24.13;;;10.90;;
6133;SDS011;3098;42.678;23.364;2023-10-19T00:19:36;25.47;;;10.90;;
6133;SDS011;3098;42.678;23.364;2023-10-19T00:22:06;26.50;;;10.93;;
6133;SDS011;3098;42.678;23.364;2023-10-19T00:24:46;24.87;;;11.37;;
6133;SDS011;3098;42.678;23.364;2023-10-19T00:27:13;27.10;;;11.48;;
6133;SDS011;3098;42.678;23.364;2023-10-19T00:29:42;22.37;;;10.90;;
6133;SDS011;3098;42.678;23.364;2023-10-19T00:32:14;24.03;;;10.23;;
6133;SDS011;3098;42.678;23.364;2023-10-19T00:34:44;21.33;;;10.93;;
6133;SDS011;3098;42.678;23.364;2023-10-19T00:37:20;21.53;;;10.67;;
6133;SDS011;3098;42.678;23.364;2023-10-19T00:39:51;20.63;;;10.30;;
6133;SDS011;3098;42.678;23.364;2023-10-19T00:42:20;24.03;;;10.60;;
6133;SDS011;3098;42.678;23.364;2023-10-19T00:44:51;24.17;;;10.57;;
6133;SDS011;3098;42.678;23.364;2023-10-19T00:47:26;23.00;;;11.65;;
6133;SDS011;3098;42.678;23.364;2023-10-19T00:50:00;24.67;;;11.20;;
6133;SDS011;3098;42.678;23.364;2023-10-19T00:52:32;21.47;;;10.53;;
6133;SDS011;3098;42.678;23.364;2023-10-19T00:55:08;22.63;;;10.37;;
6133;SDS011;3098;42.678;23.364;2023-10-19T00:57:38;17.27;;;8.93;;
6133;SDS011;3098;42.678;23.364;2023-10-19T01:00:11;20.55;;;10.32;;
6133;SDS011;3098;42.678;23.364;2023-10-19T01:02:47;21.57;;;9.77;;
6133;SDS011;3098;42.678;23.364;2023-10-19T01:05:16;20.33;;;10.32;;
6133;SDS011;3098;42.678;23.364;2023-10-19T01:07:48;24.77;;;11.00;;
6133;SDS011;3098;42.678;23.364;2023-10-19T01:10:22;22.13;;;11.80;;
6133;SDS011;3098;42.678;23.364;2023-10-19T01:12:53;22.80;;;10.80;;
6133;SDS011;3098;42.678;23.364;2023-10-19T01:15:24;24.85;;;10.18;;
6133;SDS011;3098;42.678;23.364;2023-10-19T01:18:01;22.70;;;10.93;;
6133;SDS011;3098;42.678;23.364;2023-10-19T01:20:30;26.07;;;10.47;;
6133;SDS011;3098;42.678;23.364;2023-10-19T01:23:14;23.70;;;11.77;;
6133;SDS011;3098;42.678;23.364;2023-10-19T01:25:51;23.60;;;10.30;;
6133;SDS011;3098;42.678;23.364;2023-10-19T01:28:26;22.77;;;10.67;;
6133;SDS011;3098;42.678;23.364;2023-10-19T01:31:07;25.63;;;11.53;;
6133;SDS011;3098;42.678;23.364;2023-10-19T01:33:40;21.90;;;11.03;;
6133;SDS011;3098;42.678;23.364;2023-10-19T01:36:08;19.23;;;9.93;;
6133;SDS011;3098;42.678;23.364;2023-10-19T01:38:51;18.80;;;9.07;;
6133;SDS011;3098;42.678;23.364;2023-10-19T01:41:19;19.70;;;10.10;;
6133;SDS011;3098;42.678;23.364;2023-10-19T01:43:48;22.47;;;10.87;;
6133;SDS011;3098;42.678;23.364;2023-10-19T01:46:16;20.47;;;10.57;;
6133;SDS011;3098;42.678;23.364;2023-10-19T01:48:49;22.77;;;10.43;;
6133;SDS011;3098;42.678;23.364;2023-10-19T01:51:20;19.23;;;10.40;;
6133;SDS011;3098;42.678;23.364;2023-10-19T01:53:50;23.33;;;11.43;;
6133;SDS011;3098;42.678;23.364;2023-10-19T01:56:17;25.60;;;11.27;;
6133;SDS011;3098;42.678;23.364;2023-10-19T01:58:47;20.27;;;10.87;;
6133;SDS011;3098;42.678;23.364;2023-10-19T02:01:14;22.73;;;10.97;;
6133;SDS011;3098;42.678;23.364;2023-10-19T02:03:46;22.13;;;10.97;;
6133;SDS011;3098;42.678;23.364;2023-10-19T02:06:18;24.50;;;11.00;;
6133;SDS011;3098;42.678;23.364;2023-10-19T02:08:46;23.47;;;11.37;;
6133;SDS011;3098;42.678;23.364;2023-10-19T02:11:18;22.17;;;10.20;;
6133;SDS011;3098;42.678;23.364;2023-10-19T02:13:47;24.03;;;10.90;;
6133;SDS011;3098;42.678;23.364;2023-10-19T02:16:15;21.10;;;11.02;;
6133;SDS011;3098;42.678;23.364;2023-10-19T02:18:46;21.40;;;9.90;;
6133;SDS011;3098;42.678;23.364;2023-10-19T02:21:12;19.97;;;9.97;;
6133;SDS011;3098;42.678;23.364;2023-10-19T02:23:40;20.30;;;10.18;;
6133;SDS011;3098;42.678;23.364;2023-10-19T02:26:07;20.02;;;10.65;;
6133;SDS011;3098;42.678;23.364;2023-10-19T02:28:39;21.47;;;10.60;;
6133;SDS011;3098;42.678;23.364;2023-10-19T02:31:09;26.20;;;13.00;;
6133;SDS011;3098;42.678;23.364;2023-10-19T02:33:44;24.63;;;12.17;;
6133;SDS011;3098;42.678;23.364;2023-10-19T02:36:17;28.60;;;13.13;;
6133;SDS011;3098;42.678;23.364;2023-10-19T02:38:45;23.87;;;11.80;;
6133;SDS011;3098;42.678;23.364;2023-10-19T02:41:14;24.87;;;12.53;;
6133;SDS011;3098;42.678;23.364;2023-10-19T02:43:44;27.23;;;13.03;;
6133;SDS011;3098;42.678;23.364;2023-10-19T02:46:12;24.03;;;11.80;;
6133;SDS011;3098;42.678;23.364;2023-10-19T02:48:38;25.43;;;12.20;;
6133;SDS011;3098;42.678;23.364;2023-10-19T02:51:09;23.17;;;11.87;;
6133;SDS011;3098;42.678;23.364;2023-10-19T02:53:36;19.87;;;10.40;;
6133;SDS011;3098;42.678;23.364;2023-10-19T02:56:11;21.67;;;11.63;;
6133;SDS011;3098;42.678;23.364;2023-10-19T02:58:42;24.67;;;11.90;;
6133;SDS011;3098;42.678;23.364;2023-10-19T03:01:15;24.67;;;11.63;;
6133;SDS011;3098;42.678;23.364;2023-10-19T03:03:48;22.23;;;11.17;;
6133;SDS011;3098;42.678;23.364;2023-10-19T03:06:18;24.00;;;11.33;;
6133;SDS011;3098;42.678;23.364;2023-10-19T03:08:46;30.57;;;12.07;;
6133;SDS011;3098;42.678;23.364;2023-10-19T03:11:13;26.30;;;12.53;;
6133;SDS011;3098;42.678;23.364;2023-10-19T03:13:41;23.10;;;12.53;;
6133;SDS011;3098;42.678;23.364;2023-10-19T03:16:10;28.07;;;12.90;;
6133;SDS011;3098;42.678;23.364;2023-10-19T03:18:38;37.57;;;17.10;;
6133;SDS011;3098;42.678;23.364;2023-10-19T03:21:04;28.87;;;14.10;;
6133;SDS011;3098;42.678;23.364;2023-10-19T03:23:32;28.93;;;14.70;;
6133;SDS011;3098;42.678;23.364;2023-10-19T03:25:59;30.93;;;14.80;;
6133;SDS011;3098;42.678;23.364;2023-10-19T03:28:53;35.50;;;17.97;;
6133;SDS011;3098;42.678;23.364;2023-10-19T03:31:22;36.60;;;17.27;;
6133;SDS011;3098;42.678;23.364;2023-10-19T03:33:50;28.70;;;14.10;;
6133;SDS011;3098;42.678;23.364;2023-10-19T03:36:21;31.37;;;14.90;;
6133;SDS011;3098;42.678;23.364;2023-10-19T03:38:50;34.33;;;16.63;;
6133;SDS011;3098;42.678;23.364;2023-10-19T03:41:18;32.97;;;15.93;;
6133;SDS011;3098;42.678;23.364;2023-10-19T03:43:50;35.67;;;17.20;;
6133;SDS011;3098;42.678;23.364;2023-10-19T03:46:19;35.13;;;16.57;;
6133;SDS011;3098;42.678;23.364;2023-10-19T03:48:54;41.63;;;16.43;;
6133;SDS011;3098;42.678;23.364;2023-10-19T03:51:24;31.97;;;16.00;;
6133;SDS011;3098;42.678;23.364;2023-10-19T03:54:04;28.67;;;14.93;;
6133;SDS011;3098;42.678;23.364;2023-10-19T03:56:34;29.17;;;15.37;;
6133;SDS011;3098;42.678;23.364;2023-10-19T03:59:03;28.23;;;13.10;;
6133;SDS011;3098;42.678;23.364;2023-10-19T04:01:32;31.20;;;14.10;;
6133;SDS011;3098;42.678;23.364;2023-10-19T04:03:59;27.40;;;13.73;;
6133;SDS011;3098;42.678;23.364;2023-10-19T04:06:28;36.87;;;16.70;;
6133;SDS011;3098;42.678;23.364;2023-10-19T04:08:55;33.07;;;14.07;;
6133;SDS011;3098;42.678;23.364;2023-10-19T04:11:22;24.30;;;12.97;;
6133;SDS011;3098;42.678;23.364;2023-10-19T04:13:58;24.60;;;11.77;;
6133;SDS011;3098;42.678;23.364;2023-10-19T04:16:28;24.70;;;12.23;;
6133;SDS011;3098;42.678;23.364;2023-10-19T04:19:04;23.07;;;10.17;;
6133;SDS011;3098;42.678;23.364;2023-10-19T04:21:31;18.43;;;9.60;;
6133;SDS011;3098;42.678;23.364;2023-10-19T04:24:04;30.53;;;11.50;;
6133;SDS011;3098;42.678;23.364;2023-10-19T04:26:32;26.93;;;12.70;;
6133;SDS011;3098;42.678;23.364;2023-10-19T04:29:02;28.07;;;12.67;;
6133;SDS011;3098;42.678;23.364;2023-10-19T04:31:35;35.23;;;14.90;;
6133;SDS011;3098;42.678;23.364;2023-10-19T04:34:07;37.37;;;15.30;;
6133;SDS011;3098;42.678;23.364;2023-10-19T04:36:35;34.50;;;16.00;;
6133;SDS011;3098;42.678;23.364;2023-10-19T04:39:05;36.47;;;16.17;;
6133;SDS011;3098;42.678;23.364;2023-10-19T04:41:39;33.53;;;17.03;;
6133;SDS011;3098;42.678;23.364;2023-10-19T04:44:06;34.77;;;16.13;;
6133;SDS011;3098;42.678;23.364;2023-10-19T04:46:35;32.13;;;16.20;;
6133;SDS011;3098;42.678;23.364;2023-10-19T04:49:03;31.63;;;17.07;;
6133;SDS011;3098;42.678;23.364;2023-10-19T04:51:32;35.50;;;17.87;;
6133;SDS011;3098;42.678;23.364;2023-10-19T04:54:04;42.90;;;17.43;;
6133;SDS011;3098;42.678;23.364;2023-10-19T04:56:33;42.23;;;19.17;;
6133;SDS011;3098;42.678;23.364;2023-10-19T04:59:02;44.20;;;19.97;;
6133;SDS011;3098;42.678;23.364;2023-10-19T05:01:31;42.70;;;19.90;;
6133;SDS011;3098;42.678;23.364;2023-10-19T05:04:00;48.50;;;21.63;;
6133;SDS011;3098;42.678;23.364;2023-10-19T05:06:29;36.67;;;19.07;;
6133;SDS011;3098;42.678;23.364;2023-10-19T05:09:01;48.80;;;22.27;;
6133;SDS011;3098;42.678;23.364;2023-10-19T05:11:31;22.13;;;12.00;;
6133;SDS011;3098;42.678;23.364;2023-10-19T05:13:58;30.03;;;13.77;;
6133;SDS011;3098;42.678;23.364;2023-10-19T05:16:25;34.57;;;17.57;;
6133;SDS011;3098;42.678;23.364;2023-10-19T05:18:53;22.30;;;12.47;;
6133;SDS011;3098;42.678;23.364;2023-10-19T05:21:21;33.45;;;14.38;;
6133;SDS011;3098;42.678;23.364;2023-10-19T05:23:48;27.35;;;13.75;;
6133;SDS011;3098;42.678;23.364;2023-10-19T05:26:17;22.77;;;11.85;;
6133;SDS011;3098;42.678;23.364;2023-10-19T05:28:44;30.75;;;15.52;;
6133;SDS011;3098;42.678;23.364;2023-10-19T05:31:13;33.92;;;15.85;;
6133;SDS011;3098;42.678;23.364;2023-10-19T05:33:41;22.70;;;12.18;;
6133;SDS011;3098;42.678;23.364;2023-10-19T05:36:08;21.65;;;12.15;;
6133;SDS011;3098;42.678;23.364;2023-10-19T05:38:35;16.75;;;10.02;;
6133;SDS011;3098;42.678;23.364;2023-10-19T05:41:03;13.48;;;7.40;;
6133;SDS011;3098;42.678;23.364;2023-10-19T05:43:35;22.35;;;7.75;;
6133;SDS011;3098;42.678;23.364;2023-10-19T05:46:03;10.38;;;6.05;;
6133;SDS011;3098;42.678;23.364;2023-10-19T05:48:31;11.60;;;6.40;;
6133;SDS011;3098;42.678;23.364;2023-10-19T05:51:00;18.30;;;9.32;;
6133;SDS011;3098;42.678;23.364;2023-10-19T05:53:29;22.83;;;10.98;;
6133;SDS011;3098;42.678;23.364;2023-10-19T05:55:56;24.02;;;11.73;;
6133;SDS011;3098;42.678;23.364;2023-10-19T05:58:23;28.65;;;13.05;;
6133;SDS011;3098;42.678;23.364;2023-10-19T06:00:53;18.75;;;11.35;;
6133;SDS011;3098;42.678;23.364;2023-10-19T06:03:24;29.50;;;14.50;;
6133;SDS011;3098;42.678;23.364;2023-10-19T06:05:52;25.45;;;13.60;;
6133;SDS011;3098;42.678;23.364;2023-10-19T06:08:21;25.33;;;12.93;;
6133;SDS011;3098;42.678;23.364;2023-10-19T06:10:50;19.40;;;12.00;;
6133;SDS011;3098;42.678;23.364;2023-10-19T06:13:19;18.88;;;9.52;;
6133;SDS011;3098;42.678;23.364;2023-10-19T06:15:49;14.07;;;7.90;;
6133;SDS011;3098;42.678;23.364;2023-10-19T06:18:20;16.60;;;8.65;;
6133;SDS011;3098;42.678;23.364;2023-10-19T06:20:48;19.08;;;10.10;;
6133;SDS011;3098;42.678;23.364;2023-10-19T06:23:16;22.40;;;9.95;;
6133;SDS011;3098;42.678;23.364;2023-10-19T06:25:46;19.00;;;10.70;;
6133;SDS011;3098;42.678;23.364;2023-10-19T06:28:16;22.35;;;11.02;;
6133;SDS011;3098;42.678;23.364;2023-10-19T06:30:44;19.30;;;9.35;;
6133;SDS011;3098;42.678;23.364;2023-10-19T06:33:13;33.28;;;11.70;;
6133;SDS011;3098;42.678;23.364;2023-10-19T06:35:43;23.23;;;11.40;;
6133;SDS011;3098;42.678;23.364;2023-10-19T06:38:10;23.15;;;11.32;;
6133;SDS011;3098;42.678;23.364;2023-10-19T06:40:37;25.88;;;12.02;;
6133;SDS011;3098;42.678;23.364;2023-10-19T06:43:06;21.70;;;10.85;;
6133;SDS011;3098;42.678;23.364;2023-10-19T06:45:36;20.88;;;11.13;;
6133;SDS011;3098;42.678;23.364;2023-10-19T06:48:04;17.55;;;9.10;;
6133;SDS011;3098;42.678;23.364;2023-10-19T06:50:32;15.13;;;8.40;;
6133;SDS011;3098;42.678;23.364;2023-10-19T06:53:03;19.23;;;10.07;;
6133;SDS011;3098;42.678;23.364;2023-10-19T06:55:31;23.13;;;10.32;;
6133;SDS011;3098;42.678;23.364;2023-10-19T06:57:58;19.85;;;7.47;;
6133;SDS011;3098;42.678;23.364;2023-10-19T07:00:26;14.90;;;7.70;;
6133;SDS011;3098;42.678;23.364;2023-10-19T07:02:55;15.40;;;6.95;;
6133;SDS011;3098;42.678;23.364;2023-10-19T07:05:25;14.38;;;8.05;;
6133;SDS011;3098;42.678;23.364;2023-10-19T07:07:57;15.52;;;8.35;;
6133;SDS011;3098;42.678;23.364;2023-10-19T07:10:30;15.35;;;7.72;;
6133;SDS011;3098;42.678;23.364;2023-10-19T07:12:57;18.75;;;8.52;;
6133;SDS011;3098;42.678;23.364;2023-10-19T07:15:25;13.68;;;7.97;;
6133;SDS011;3098;42.678;23.364;2023-10-19T07:17:53;18.33;;;8.32;;
6133;SDS011;3098;42.678;23.364;2023-10-19T07:20:21;17.45;;;9.10;;
6133;SDS011;3098;42.678;23.364;2023-10-19T07:22:54;19.23;;;10.75;;
6133;SDS011;3098;42.678;23.364;2023-10-19T07:25:22;16.15;;;8.88;;
6133;SDS011;3098;42.678;23.364;2023-10-19T07:27:52;18.33;;;8.82;;
6133;SDS011;3098;42.678;23.364;2023-10-19T07:30:25;18.05;;;9.57;;
6133;SDS011;3098;42.678;23.364;2023-10-19T07:32:53;16.33;;;9.23;;
6133;SDS011;3098;42.678;23.364;2023-10-19T07:35:23;20.15;;;9.20;;
6133;SDS011;3098;42.678;23.364;2023-10-19T07:37:52;19.70;;;10.15;;
6133;SDS011;3098;42.678;23.364;2023-10-19T07:40:21;23.10;;;10.00;;
6133;SDS011;3098;42.678;23.364;2023-10-19T07:42:49;19.05;;;10.05;;
6133;SDS011;3098;42.678;23.364;2023-10-19T07:45:19;19.23;;;9.15;;
6133;SDS011;3098;42.678;23.364;2023-10-19T07:47:46;17.85;;;9.05;;
6133;SDS011;3098;42.678;23.364;2023-10-19T07:50:14;15.82;;;8.43;;
6133;SDS011;3098;42.678;23.364;2023-10-19T07:52:44;16.52;;;8.98;;
6133;SDS011;3098;42.678;23.364;2023-10-19T07:55:13;15.65;;;8.20;;
6133;SDS011;3098;42.678;23.364;2023-10-19T07:57:41;14.90;;;8.25;;
6133;SDS011;3098;42.678;23.364;2023-10-19T08:00:09;13.00;;;7.85;;
6133;SDS011;3098;42.678;23.364;2023-10-19T08:02:41;14.50;;;8.30;;
6133;SDS011;3098;42.678;23.364;2023-10-19T08:05:11;11.63;;;7.88;;
6133;SDS011;3098;42.678;23.364;2023-10-19T08:07:39;14.32;;;8.63;;
6133;SDS011;3098;42.678;23.364;2023-10-19T08:10:08;12.68;;;7.60;;
6133;SDS011;3098;42.678;23.364;2023-10-19T08:12:38;10.65;;;6.65;;
6133;SDS011;3098;42.678;23.364;2023-10-19T08:15:08;15.07;;;7.65;;
6133;SDS011;3098;42.678;23.364;2023-10-19T08:17:43;11.18;;;7.55;;
6133;SDS011;3098;42.678;23.364;2023-10-19T08:20:12;13.60;;;8.32;;
6133;SDS011;3098;42.678;23.364;2023-10-19T08:22:48;11.38;;;6.82;;
6133;SDS011;3098;42.678;23.364;2023-10-19T08:25:16;11.23;;;7.63;;
6133;SDS011;3098;42.678;23.364;2023-10-19T08:27:46;10.50;;;6.80;;
6133;SDS011;3098;42.678;23.364;2023-10-19T08:30:17;9.40;;;6.50;;
6133;SDS011;3098;42.678;23.364;2023-10-19T08:32:48;10.55;;;6.68;;
6133;SDS011;3098;42.678;23.364;2023-10-19T08:35:17;9.20;;;6.15;;
6133;SDS011;3098;42.678;23.364;2023-10-19T08:37:49;10.05;;;6.55;;
6133;SDS011;3098;42.678;23.364;2023-10-19T08:40:18;12.48;;;6.40;;
6133;SDS011;3098;42.678;23.364;2023-10-19T08:42:47;8.55;;;6.30;;
6133;SDS011;3098;42.678;23.364;2023-10-19T08:45:15;8.98;;;6.47;;
6133;SDS011;3098;42.678;23.364;2023-10-19T08:47:43;9.63;;;6.18;;
6133;SDS011;3098;42.678;23.364;2023-10-19T08:50:21;13.25;;;8.18;;
6133;SDS011;3098;42.678;23.364;2023-10-19T08:52:50;12.68;;;7.50;;
6133;SDS011;3098;42.678;23.364;2023-10-19T08:55:20;11.43;;;7.60;;
6133;SDS011;3098;42.678;23.364;2023-10-19T08:57:49;14.23;;;8.13;;
6133;SDS011;3098;42.678;23.364;2023-10-19T09:00:19;10.45;;;7.32;;
6133;SDS011;3098;42.678;23.364;2023-10-19T09:02:53;11.88;;;6.72;;
6133;SDS011;3098;42.678;23.364;2023-10-19T09:05:22;13.23;;;7.07;;
6133;SDS011;3098;42.678;23.364;2023-10-19T09:07:51;9.98;;;6.50;;
6133;SDS011;3098;42.678;23.364;2023-10-19T09:10:21;13.80;;;7.28;;
6133;SDS011;3098;42.678;23.364;2023-10-19T09:12:58;11.88;;;7.43;;
6133;SDS011;3098;42.678;23.364;2023-10-19T09:15:28;10.65;;;6.75;;
6133;SDS011;3098;42.678;23.364;2023-10-19T09:17:59;13.07;;;7.82;;
6133;SDS011;3098;42.678;23.364;2023-10-19T09:20:40;10.48;;;6.97;;
6133;SDS011;3098;42.678;23.364;2023-10-19T09:23:17;11.73;;;6.65;;
6133;SDS011;3098;42.678;23.364;2023-10-19T09:25:47;12.05;;;7.18;;
6133;SDS011;3098;42.678;23.364;2023-10-19T09:28:18;12.75;;;8.05;;
6133;SDS011;3098;42.678;23.364;2023-10-19T09:30:47;11.63;;;6.65;;
6133;SDS011;3098;42.678;23.364;2023-10-19T09:33:17;13.23;;;7.68;;
6133;SDS011;3098;42.678;23.364;2023-10-19T09:35:47;11.77;;;7.35;;
6133;SDS011;3098;42.678;23.364;2023-10-19T09:38:16;12.90;;;8.20;;
6133;SDS011;3098;42.678;23.364;2023-10-19T09:40:46;12.90;;;7.65;;
6133;SDS011;3098;42.678;23.364;2023-10-19T09:43:15;11.70;;;6.63;;
6133;SDS011;3098;42.678;23.364;2023-10-19T09:45:49;15.73;;;7.50;;
6133;SDS011;3098;42.678;23.364;2023-10-19T09:48:23;18.92;;;7.53;;
6133;SDS011;3098;42.678;23.364;2023-10-19T09:50:52;9.32;;;6.85;;
6133;SDS011;3098;42.678;23.364;2023-10-19T09:53:23;10.25;;;7.05;;
6133;SDS011;3098;42.678;23.364;2023-10-19T09:55:54;10.63;;;7.07;;
6133;SDS011;3098;42.678;23.364;2023-10-19T09:58:25;10.32;;;7.28;;
6133;SDS011;3098;42.678;23.364;2023-10-19T10:00:58;11.25;;;7.50;;
6133;SDS011;3098;42.678;23.364;2023-10-19T10:03:50;11.77;;;7.07;;
6133;SDS011;3098;42.678;23.364;2023-10-19T10:06:26;12.32;;;7.18;;
6133;SDS011;3098;42.678;23.364;2023-10-19T10:08:55;10.15;;;7.18;;
6133;SDS011;3098;42.678;23.364;2023-10-19T10:11:28;13.07;;;7.00;;
6133;SDS011;3098;42.678;23.364;2023-10-19T10:13:56;13.25;;;8.10;;
6133;SDS011;3098;42.678;23.364;2023-10-19T10:16:26;13.32;;;7.35;;
6133;SDS011;3098;42.678;23.364;2023-10-19T10:18:57;14.65;;;7.07;;
6133;SDS011;3098;42.678;23.364;2023-10-19T10:21:26;10.27;;;7.13;;
6133;SDS011;3098;42.678;23.364;2023-10-19T10:23:55;10.65;;;6.78;;
6133;SDS011;3098;42.678;23.364;2023-10-19T10:26:25;20.48;;;7.38;;
6133;SDS011;3098;42.678;23.364;2023-10-19T10:29:07;10.32;;;6.45;;
6133;SDS011;3098;42.678;23.364;2023-10-19T10:31:40;10.98;;;6.55;;
6133;SDS011;3098;42.678;23.364;2023-10-19T10:34:11;9.07;;;6.03;;
6133;SDS011;3098;42.678;23.364;2023-10-19T10:36:58;9.70;;;6.50;;
6133;SDS011;3098;42.678;23.364;2023-10-19T10:39:28;8.98;;;6.47;;
6133;SDS011;3098;42.678;23.364;2023-10-19T10:41:57;11.77;;;6.82;;
6133;SDS011;3098;42.678;23.364;2023-10-19T10:44:37;9.68;;;6.70;;
6133;SDS011;3098;42.678;23.364;2023-10-19T10:47:08;11.52;;;7.00;;
6133;SDS011;3098;42.678;23.364;2023-10-19T10:49:49;13.23;;;6.50;;
6133;SDS011;3098;42.678;23.364;2023-10-19T10:52:25;21.88;;;7.72;;
6133;SDS011;3098;42.678;23.364;2023-10-19T10:54:54;10.07;;;6.72;;
6133;SDS011;3098;42.678;23.364;2023-10-19T10:57:24;16.58;;;7.05;;
6133;SDS011;3098;42.678;23.364;2023-10-19T11:00:03;12.20;;;6.78;;
6133;SDS011;3098;42.678;23.364;2023-10-19T11:02:34;14.85;;;5.88;;
6133;SDS011;3098;42.678;23.364;2023-10-19T11:05:11;15.43;;;6.43;;
6133;SDS011;3098;42.678;23.364;2023-10-19T11:07:40;10.65;;;6.53;;
6133;SDS011;3098;42.678;23.364;2023-10-19T11:10:09;10.38;;;6.43;;
6133;SDS011;3098;42.678;23.364;2023-10-19T11:12:39;13.77;;;6.40;;
6133;SDS011;3098;42.678;23.364;2023-10-19T11:15:11;13.52;;;7.55;;
6133;SDS011;3098;42.678;23.364;2023-10-19T11:17:47;11.88;;;6.13;;
6133;SDS011;3098;42.678;23.364;2023-10-19T11:20:22;10.65;;;6.13;;
6133;SDS011;3098;42.678;23.364;2023-10-19T11:22:53;9.55;;;6.47;;
6133;SDS011;3098;42.678;23.364;2023-10-19T11:25:22;13.13;;;6.70;;
6133;SDS011;3098;42.678;23.364;2023-10-19T11:27:53;9.93;;;6.57;;
6133;SDS011;3098;42.678;23.364;2023-10-19T11:30:22;11.32;;;6.28;;
6133;SDS011;3098;42.678;23.364;2023-10-19T11:32:52;11.38;;;6.57;;
6133;SDS011;3098;42.678;23.364;2023-10-19T11:35:26;8.75;;;6.00;;
6133;SDS011;3098;42.678;23.364;2023-10-19T11:37:55;11.77;;;6.10;;
6133;SDS011;3098;42.678;23.364;2023-10-19T11:40:24;10.88;;;6.97;;
6133;SDS011;3098;42.678;23.364;2023-10-19T11:42:52;9.20;;;5.50;;
6133;SDS011;3098;42.678;23.364;2023-10-19T11:45:22;8.88;;;5.50;;
6133;SDS011;3098;42.678;23.364;2023-10-19T11:47:50;6.90;;;5.32;;
6133;SDS011;3098;42.678;23.364;2023-10-19T11:50:19;8.40;;;5.63;;
6133;SDS011;3098;42.678;23.364;2023-10-19T11:52:48;9.65;;;4.82;;
6133;SDS011;3098;42.678;23.364;2023-10-19T11:55:17;10.13;;;5.00;;
6133;SDS011;3098;42.678;23.364;2023-10-19T11:57:46;8.10;;;5.10;;
6133;SDS011;3098;42.678;23.364;2023-10-19T12:00:15;10.45;;;5.85;;
6133;SDS011;3098;42.678;23.364;2023-10-19T12:02:47;8.93;;;6.07;;
6133;SDS011;3098;42.678;23.364;2023-10-19T12:05:17;7.88;;;5.47;;
6133;SDS011;3098;42.678;23.364;2023-10-19T12:07:44;9.27;;;5.80;;
6133;SDS011;3098;42.678;23.364;2023-10-19T12:10:13;18.15;;;7.43;;
6133;SDS011;3098;42.678;23.364;2023-10-19T12:12:40;15.88;;;6.45;;
6133;SDS011;3098;42.678;23.364;2023-10-19T12:15:08;13.85;;;6.20;;
6133;SDS011;3098;42.678;23.364;2023-10-19T12:17:37;7.95;;;5.35;;
6133;SDS011;3098;42.678;23.364;2023-10-19T12:20:10;11.70;;;6.90;;
6133;SDS011;3098;42.678;23.364;2023-10-19T12:22:39;9.73;;;6.30;;
6133;SDS011;3098;42.678;23.364;2023-10-19T12:25:07;9.18;;;6.25;;
6133;SDS011;3098;42.678;23.364;2023-10-19T12:27:37;10.90;;;5.18;;
6133;SDS011;3098;42.678;23.364;2023-10-19T12:30:05;8.55;;;4.85;;
6133;SDS011;3098;42.678;23.364;2023-10-19T12:32:42;10.02;;;5.25;;
6133;SDS011;3098;42.678;23.364;2023-10-19T12:35:09;7.82;;;4.75;;
6133;SDS011;3098;42.678;23.364;2023-10-19T12:37:37;8.80;;;4.38;;
6133;SDS011;3098;42.678;23.364;2023-10-19T12:40:11;8.00;;;4.97;;
6133;SDS011;3098;42.678;23.364;2023-10-19T12:42:53;9.82;;;5.07;;
6133;SDS011;3098;42.678;23.364;2023-10-19T12:45:20;10.25;;;4.80;;
6133;SDS011;3098;42.678;23.364;2023-10-19T12:47:50;9.88;;;4.97;;
6133;SDS011;3098;42.678;23.364;2023-10-19T12:50:18;7.25;;;4.75;;
6133;SDS011;3098;42.678;23.364;2023-10-19T12:52:48;9.00;;;4.57;;
6133;SDS011;3098;42.678;23.364;2023-10-19T12:55:21;8.00;;;4.75;;
6133;SDS011;3098;42.678;23.364;2023-10-19T12:57:54;9.63;;;4.95;;
6133;SDS011;3098;42.678;23.364;2023-10-19T13:00:22;8.10;;;4.75;;
6133;SDS011;3098;42.678;23.364;2023-10-19T13:02:51;6.60;;;4.30;;
6133;SDS011;3098;42.678;23.364;2023-10-19T13:05:25;10.48;;;4.43;;
6133;SDS011;3098;42.678;23.364;2023-10-19T13:07:53;7.88;;;5.07;;
6133;SDS011;3098;42.678;23.364;2023-10-19T13:10:27;8.48;;;4.30;;
6133;SDS011;3098;42.678;23.364;2023-10-19T13:13:02;7.30;;;4.35;;
6133;SDS011;3098;42.678;23.364;2023-10-19T13:15:34;6.60;;;3.83;;
6133;SDS011;3098;42.678;23.364;2023-10-19T13:18:05;6.85;;;4.40;;
6133;SDS011;3098;42.678;23.364;2023-10-19T13:20:38;6.75;;;4.18;;
6133;SDS011;3098;42.678;23.364;2023-10-19T13:23:09;7.57;;;4.68;;
6133;SDS011;3098;42.678;23.364;2023-10-19T13:25:48;5.78;;;3.95;;
6133;SDS011;3098;42.678;23.364;2023-10-19T13:28:28;5.25;;;3.85;;
6133;SDS011;3098;42.678;23.364;2023-10-19T13:30:56;9.85;;;6.53;;
6133;SDS011;3098;42.678;23.364;2023-10-19T13:33:25;9.60;;;5.20;;
6133;SDS011;3098;42.678;23.364;2023-10-19T13:35:56;6.45;;;4.38;;
6133;SDS011;3098;42.678;23.364;2023-10-19T13:38:25;6.15;;;4.28;;
6133;SDS011;3098;42.678;23.364;2023-10-19T13:40:57;7.60;;;3.92;;
6133;SDS011;3098;42.678;23.364;2023-10-19T13:43:28;5.97;;;4.03;;
6133;SDS011;3098;42.678;23.364;2023-10-19T13:45:59;7.00;;;3.85;;
6133;SDS011;3098;42.678;23.364;2023-10-19T13:48:30;7.70;;;4.28;;
6133;SDS011;3098;42.678;23.364;2023-10-19T13:50:58;6.15;;;4.03;;
6133;SDS011;3098;42.678;23.364;2023-10-19T13:53:39;5.68;;;3.50;;
6133;SDS011;3098;42.678;23.364;2023-10-19T13:56:11;3.97;;;3.00;;
6133;SDS011;3098;42.678;23.364;2023-10-19T13:58:48;9.25;;;4.00;;
6133;SDS011;3098;42.678;23.364;2023-10-19T14:01:18;5.15;;;3.42;;
6133;SDS011;3098;42.678;23.364;2023-10-19T14:03:50;5.95;;;3.95;;
6133;SDS011;3098;42.678;23.364;2023-10-19T14:06:24;6.93;;;3.65;;
6133;SDS011;3098;42.678;23.364;2023-10-19T14:08:54;4.95;;;3.50;;
6133;SDS011;3098;42.678;23.364;2023-10-19T14:11:23;5.93;;;3.78;;
6133;SDS011;3098;42.678;23.364;2023-10-19T14:13:52;5.00;;;3.53;;
6133;SDS011;3098;42.678;23.364;2023-10-19T14:16:21;8.25;;;3.65;;
6133;SDS011;3098;42.678;23.364;2023-10-19T14:18:51;8.90;;;3.78;;
6133;SDS011;3098;42.678;23.364;2023-10-19T14:21:21;7.32;;;4.15;;
6133;SDS011;3098;42.678;23.364;2023-10-19T14:23:52;6.57;;;3.78;;
6133;SDS011;3098;42.678;23.364;2023-10-19T14:26:22;7.45;;;3.67;;
6133;SDS011;3098;42.678;23.364;2023-10-19T14:28:56;5.78;;;3.90;;
6133;SDS011;3098;42.678;23.364;2023-10-19T14:31:25;7.18;;;3.60;;
6133;SDS011;3098;42.678;23.364;2023-10-19T14:33:53;7.40;;;4.00;;
6133;SDS011;3098;42.678;23.364;2023-10-19T14:36:23;7.18;;;3.85;;
6133;SDS011;3098;42.678;23.364;2023-10-19T14:38:51;7.72;;;3.70;;
6133;SDS011;3098;42.678;23.364;2023-10-19T14:41:20;10.27;;;3.90;;
6133;SDS011;3098;42.678;23.364;2023-10-19T14:43:49;8.50;;;4.00;;
6133;SDS011;3098;42.678;23.364;2023-10-19T14:46:20;7.75;;;3.70;;
6133;SDS011;3098;42.678;23.364;2023-10-19T14:48:48;6.35;;;3.92;;
6133;SDS011;3098;42.678;23.364;2023-10-19T14:51:17;8.23;;;3.97;;
6133;SDS011;3098;42.678;23.364;2023-10-19T14:53:47;4.57;;;3.70;;
6133;SDS011;3098;42.678;23.364;2023-10-19T14:56:17;8.43;;;3.97;;
6133;SDS011;3098;42.678;23.364;2023-10-19T14:58:46;8.32;;;3.92;;
6133;SDS011;3098;42.678;23.364;2023-10-19T15:01:23;5.30;;;3.53;;
6133;SDS011;3098;42.678;23.364;2023-10-19T15:03:55;6.25;;;3.95;;
6133;SDS011;3098;42.678;23.364;2023-10-19T15:06:23;9.23;;;3.38;;